Union, Utah
Current Conditions -  °F | °C
As of 1:53 PM on Tuesday 27 Jan 2015 (Local Time) from KSLC Reporting Station
Broken Clouds Broken Clouds  
Wind Chill: 56°   Ceiling: 12000
Heat Index: 56°   Visibility: 10mi
Dew Point: 34°   Wind: 22mph
Humidity: 44%   Direction: 180°S
Pressure: 30.14"   Gusts: NA
Location:  40.615°N, 111.891°W
Report Text: KSLC 272053Z 18019KT 10SM FEW055 SCT090 BKN120 13/01 A3014 RMK AO2 PK WND 17030/2000 SLP198 ACSL DSNT SE T01330011 56027
Loading
Personal Weather Stations






























Interactive Weather Map New forecast layout! Learn more

10-Day Weather Forecast

Advertisements
Track Severe Weather on mobile